Time;durP1;ratioP1;P1;durP2;ratioP2;P2;SDS_P1;SDS_P2;PMS_P1;PMS_P2;Temp;Humidity;BMP_temperature;BMP_pressure;BME280_temperature;BME280_humidity;BME280_pressure;Samples;Min_cycle;Max_cycle;Signal;HPM_P1;HPM_P2
2022/11/01 00:02:09;;;;;;;7.07;4.70;;;17.50;99.90;;;;;;5028876;28;20803;-73
2022/11/01 00:04:37;;;;;;;7.00;3.97;;;17.50;99.90;;;;;;5032663;28;20923;-73
2022/11/01 00:07:06;;;;;;;6.30;4.77;;;17.50;99.90;;;;;;5031805;28;20438;-73
2022/11/01 00:09:34;;;;;;;5.73;4.20;;;17.50;99.90;;;;;;5015726;28;20434;-73
2022/11/01 00:12:00;;;;;;;9.80;4.60;;;17.50;99.90;;;;;;5009823;28;20469;-73
2022/11/01 00:14:28;;;;;;;5.37;4.60;;;17.50;99.90;;;;;;5004701;28;20441;-73
2022/11/01 00:16:54;;;;;;;5.97;4.43;;;17.50;99.90;;;;;;5010182;28;20860;-73
2022/11/01 00:19:24;;;;;;;7.40;4.20;;;17.50;99.90;;;;;;4996524;28;20442;-73
2022/11/01 00:21:50;;;;;;;8.10;5.20;;;17.50;99.90;;;;;;5000448;28;20954;-73
2022/11/01 00:24:23;;;;;;;7.67;4.40;;;17.50;99.90;;;;;;5024825;28;20450;-73
2022/11/01 00:26:52;;;;;;;9.60;5.23;;;17.50;99.90;;;;;;4983753;28;20429;-73
2022/11/01 00:29:18;;;;;;;6.93;4.43;;;17.50;99.90;;;;;;5024404;28;20540;-73
2022/11/01 00:31:46;;;;;;;7.77;4.93;;;17.40;99.90;;;;;;5007694;28;20457;-73
2022/11/01 00:34:12;;;;;;;6.47;4.67;;;17.40;99.90;;;;;;5002583;28;20433;-73
2022/11/01 00:36:38;;;;;;;10.63;5.03;;;17.40;99.90;;;;;;5031208;28;20227;-73
2022/11/01 00:39:06;;;;;;;8.40;4.90;;;17.40;99.90;;;;;;4999124;28;20785;-73
2022/11/01 00:41:33;;;;;;;8.70;5.30;;;17.40;99.90;;;;;;5013332;28;20457;-73
2022/11/01 00:44:00;;;;;;;8.83;5.00;;;17.40;99.90;;;;;;4984272;28;20429;-73
2022/11/01 00:46:30;;;;;;;7.70;4.93;;;17.40;99.90;;;;;;5003040;28;20437;-73
2022/11/01 00:48:56;;;;;;;7.87;4.53;;;17.40;99.90;;;;;;5012966;28;20430;-73
2022/11/01 00:51:24;;;;;;;5.97;4.83;;;17.40;99.90;;;;;;4995747;28;20481;-73
2022/11/01 00:53:50;;;;;;;7.87;5.17;;;17.40;99.90;;;;;;5011758;28;20964;-73
2022/11/01 00:56:19;;;;;;;6.57;5.17;;;17.40;99.90;;;;;;5012178;28;20458;-73
2022/11/01 00:58:45;;;;;;;7.23;4.80;;;17.40;99.90;;;;;;4996283;28;20504;-73
2022/11/01 01:01:11;;;;;;;7.47;5.60;;;17.40;99.90;;;;;;5021271;28;20519;-73
2022/11/01 01:03:37;;;;;;;14.23;5.57;;;17.40;99.90;;;;;;5029729;28;20675;-73
2022/11/01 01:06:05;;;;;;;9.00;5.50;;;17.40;99.90;;;;;;4995428;28;20459;-73
2022/11/01 01:08:31;;;;;;;6.80;4.70;;;17.40;99.90;;;;;;5030266;28;20452;-73
2022/11/01 01:10:57;;;;;;;15.20;4.60;;;17.40;99.90;;;;;;5014970;28;20431;-73
2022/11/01 01:13:25;;;;;;;9.77;5.70;;;17.40;99.90;;;;;;4997192;28;20219;-73
2022/11/01 01:15:52;;;;;;;9.60;5.00;;;17.40;99.90;;;;;;5011988;28;20463;-74
2022/11/01 01:18:20;;;;;;;9.33;4.93;;;17.40;99.90;;;;;;5013902;28;20998;-73
2022/11/01 01:20:46;;;;;;;7.13;4.90;;;17.40;99.90;;;;;;5014834;28;20427;-73
2022/11/01 01:23:14;;;;;;;9.60;5.07;;;17.40;99.90;;;;;;5016598;28;20452;-73
2022/11/01 01:25:45;;;;;;;7.50;5.10;;;17.40;99.90;;;;;;5012939;28;20427;-73
2022/11/01 01:28:20;;;;;;;6.23;4.87;;;17.40;99.90;;;;;;5028412;28;20455;-73
2022/11/01 01:30:46;;;;;;;7.90;4.60;;;17.40;99.90;;;;;;5032110;28;20434;-73
2022/11/01 01:33:12;;;;;;;6.47;4.80;;;17.30;99.90;;;;;;5027608;28;20417;-73
2022/11/01 01:35:38;;;;;;;5.27;4.53;;;17.30;99.90;;;;;;4994771;28;20817;-73
2022/11/01 01:38:09;;;;;;;9.10;5.60;;;17.30;99.90;;;;;;5008678;28;20453;-73
2022/11/01 01:40:37;;;;;;;10.73;5.10;;;17.30;99.90;;;;;;5011754;28;20479;-73
2022/11/01 01:43:03;;;;;;;9.17;5.33;;;17.30;99.90;;;;;;4992216;28;20448;-73
2022/11/01 01:45:37;;;;;;;7.23;5.00;;;17.30;99.90;;;;;;5030126;28;20406;-73
2022/11/01 01:48:19;;;;;;;8.33;4.97;;;17.30;99.90;;;;;;4998784;28;20437;-73
2022/11/01 01:50:50;;;;;;;7.47;4.97;;;17.30;99.90;;;;;;5011272;28;20911;-73
2022/11/01 01:53:40;;;;;;;14.27;5.13;;;17.30;99.90;;;;;;4995039;28;20469;-73
2022/11/01 01:56:13;;;;;;;6.70;4.90;;;17.30;99.90;;;;;;4967958;28;20477;-73
2022/11/01 01:58:48;;;;;;;6.97;4.70;;;17.30;99.90;;;;;;5031697;28;20432;-73
2022/11/01 02:01:14;;;;;;;7.80;4.67;;;17.30;99.90;;;;;;5008349;28;20826;-73
2022/11/01 02:03:43;;;;;;;13.33;4.53;;;17.30;99.90;;;;;;5002193;28;20437;-73
2022/11/01 02:06:20;;;;;;;5.53;5.00;;;17.30;99.90;;;;;;5006936;28;21225;-73
2022/11/01 02:08:55;;;;;;;11.00;4.87;;;17.30;99.90;;;;;;4994278;28;20445;-73
2022/11/01 02:11:21;;;;;;;5.80;5.17;;;17.30;99.90;;;;;;4962582;28;20429;-73
2022/11/01 02:13:50;;;;;;;5.37;4.50;;;17.30;99.90;;;;;;5013277;28;20433;-73
2022/11/01 02:16:46;;;;;;;6.93;5.37;;;17.30;99.90;;;;;;5010570;28;20867;-73
2022/11/01 02:19:24;;;;;;;7.90;4.67;;;17.30;99.90;;;;;;4977601;28;20450;-73
2022/11/01 02:22:00;;;;;;;5.70;5.10;;;17.30;99.90;;;;;;5023323;28;20511;-73
2022/11/01 02:24:44;;;;;;;8.83;4.50;;;17.30;99.90;;;;;;4997397;28;20418;-73
2022/11/01 02:27:40;;;;;;;9.33;4.20;;;17.30;99.90;;;;;;5031784;28;20425;-73
2022/11/01 02:30:35;;;;;;;6.60;4.50;;;17.30;99.90;;;;;;5019955;28;20939;-73
2022/11/01 02:33:22;;;;;;;10.80;4.87;;;17.20;99.90;;;;;;5011705;28;20409;-73
2022/11/01 02:36:03;;;;;;;9.27;5.20;;;17.30;99.90;;;;;;5020106;28;21013;-73
2022/11/01 02:39:01;;;;;;;4.80;4.17;;;17.20;99.90;;;;;;4994429;28;20487;-73
2022/11/01 02:41:48;;;;;;;7.40;5.00;;;17.20;99.90;;;;;;4997354;28;20512;-73
2022/11/01 02:44:19;;;;;;;7.97;3.93;;;17.30;99.90;;;;;;5011681;28;20457;-73
2022/11/01 02:47:01;;;;;;;9.40;5.53;;;17.20;99.90;;;;;;5009915;28;20504;-73
2022/11/01 02:49:49;;;;;;;8.10;5.07;;;17.20;99.90;;;;;;5003421;28;20485;-73
2022/11/01 02:52:25;;;;;;;6.07;4.43;;;17.20;99.90;;;;;;4983250;28;20549;-73
2022/11/01 02:55:00;;;;;;;6.73;4.20;;;17.20;99.90;;;;;;4994146;28;20428;-73
2022/11/01 02:57:40;;;;;;;8.80;5.20;;;17.20;99.90;;;;;;4997469;28;20449;-73
2022/11/01 03:00:23;;;;;;;7.43;4.90;;;17.20;99.90;;;;;;5006037;28;20430;-73
2022/11/01 03:02:59;;;;;;;6.67;4.67;;;17.20;99.90;;;;;;4986286;28;20448;-73
2022/11/01 03:05:45;;;;;;;6.53;5.13;;;17.20;99.90;;;;;;5017376;28;20766;-73
2022/11/01 03:08:17;;;;;;;5.80;4.50;;;17.20;99.90;;;;;;4999216;28;20508;-73
2022/11/01 03:11:01;;;;;;;9.87;4.70;;;17.20;99.90;;;;;;5032806;28;20420;-73
2022/11/01 03:13:31;;;;;;;6.47;4.50;;;17.20;99.90;;;;;;5014079;28;20595;-73
2022/11/01 03:16:15;;;;;;;6.50;4.57;;;17.20;99.90;;;;;;5014806;28;20454;-73
2022/11/01 03:19:10;;;;;;;6.70;4.30;;;17.20;99.90;;;;;;4995785;28;20449;-73
2022/11/01 03:21:52;;;;;;;9.00;4.47;;;17.20;99.90;;;;;;4979222;28;20793;-73
2022/11/01 03:24:35;;;;;;;6.60;4.30;;;17.20;99.90;;;;;;5018322;28;20434;-73
2022/11/01 03:27:12;;;;;;;5.40;4.23;;;17.20;99.90;;;;;;5017103;28;20468;-73
2022/11/01 03:30:05;;;;;;;10.67;4.53;;;17.20;99.90;;;;;;4996802;28;20434;-73
2022/11/01 03:32:39;;;;;;;10.43;4.20;;;17.20;99.90;;;;;;4982001;28;20519;-73
2022/11/01 03:35:12;;;;;;;9.90;4.67;;;17.20;99.90;;;;;;5007321;28;20429;-73
2022/11/01 03:37:48;;;;;;;5.17;4.00;;;17.20;99.90;;;;;;4998008;28;20523;-73
2022/11/01 03:40:19;;;;;;;7.40;4.63;;;17.20;99.90;;;;;;5014800;28;20940;-73
2022/11/01 03:42:52;;;;;;;7.43;4.23;;;17.20;99.90;;;;;;5013039;28;20468;-73
2022/11/01 03:45:24;;;;;;;7.23;4.37;;;17.10;99.90;;;;;;5022265;28;20416;-73
2022/11/01 03:47:53;;;;;;;5.43;3.60;;;17.10;99.90;;;;;;5032597;28;20450;-73
2022/11/01 03:50:28;;;;;;;5.70;4.30;;;17.20;99.90;;;;;;5034249;28;20441;-73
2022/11/01 03:52:57;;;;;;;5.43;4.50;;;17.20;99.90;;;;;;4980366;28;20477;-73
2022/11/01 03:55:26;;;;;;;5.93;4.40;;;17.20;99.90;;;;;;5022271;28;20484;-73
2022/11/01 03:57:56;;;;;;;7.97;4.37;;;17.10;99.90;;;;;;5006007;28;20442;-73
2022/11/01 04:00:27;;;;;;;7.57;4.20;;;17.10;99.90;;;;;;5008403;28;21001;-72
2022/11/01 04:02:55;;;;;;;7.77;4.70;;;17.20;99.90;;;;;;5004333;28;20468;-73
2022/11/01 04:05:24;;;;;;;5.60;4.13;;;17.20;99.90;;;;;;5004100;28;20529;-73
2022/11/01 04:08:02;;;;;;;9.77;4.63;;;17.10;99.90;;;;;;5015464;28;20544;-73
2022/11/01 04:10:28;;;;;;;7.67;4.60;;;17.20;99.90;;;;;;4994077;28;20429;-73
2022/11/01 04:12:59;;;;;;;9.70;4.43;;;17.10;99.90;;;;;;4998204;28;20415;-73
2022/11/01 04:21:09;;;;;;;6.27;3.97;;;17.10;99.90;;;;;;4996348;28;20398;-72
2022/11/01 04:23:37;;;;;;;7.37;4.30;;;17.10;99.90;;;;;;5013622;28;20779;-73
2022/11/01 04:26:06;;;;;;;6.80;4.80;;;17.10;99.90;;;;;;5025753;28;20420;-73
2022/11/01 04:28:33;;;;;;;7.40;4.67;;;17.10;99.90;;;;;;5027719;28;20441;-73
2022/11/01 04:31:01;;;;;;;5.50;4.63;;;17.10;99.90;;;;;;5011451;28;20460;-73
2022/11/01 04:33:29;;;;;;;5.03;4.43;;;17.10;99.90;;;;;;5030117;28;20997;-73
2022/11/01 04:35:57;;;;;;;6.10;3.83;;;17.10;99.90;;;;;;5023610;28;20604;-73
2022/11/01 04:38:23;;;;;;;6.00;5.23;;;17.10;99.90;;;;;;5013507;28;20444;-73
2022/11/01 04:40:56;;;;;;;6.13;4.30;;;17.10;99.90;;;;;;5031472;28;20591;-72
2022/11/01 04:43:24;;;;;;;5.30;4.37;;;17.10;99.90;;;;;;5033317;28;21013;-73
2022/11/01 04:46:00;;;;;;;6.73;4.20;;;17.10;99.90;;;;;;5012785;28;20774;-73
2022/11/01 04:48:29;;;;;;;5.23;3.53;;;17.10;99.90;;;;;;5002170;28;20452;-72
2022/11/01 04:50:59;;;;;;;4.67;3.90;;;17.10;99.90;;;;;;5013731;28;20432;-73
2022/11/01 04:53:28;;;;;;;8.77;3.73;;;17.10;99.90;;;;;;5033193;28;20449;-73
2022/11/01 04:55:56;;;;;;;5.50;3.63;;;17.10;99.90;;;;;;5028907;28;20449;-73
2022/11/01 04:58:22;;;;;;;5.60;3.90;;;17.10;99.90;;;;;;4984926;28;20447;-73
2022/11/01 05:00:48;;;;;;;10.60;3.97;;;17.10;99.90;;;;;;5029809;28;20477;-73
2022/11/01 05:03:17;;;;;;;7.23;4.00;;;17.10;99.90;;;;;;5013096;28;20437;-73
2022/11/01 05:05:43;;;;;;;6.83;4.70;;;17.10;99.90;;;;;;4997402;28;20427;-73
2022/11/01 05:08:12;;;;;;;4.57;4.10;;;17.10;99.90;;;;;;4980092;28;20450;-73
2022/11/01 05:10:42;;;;;;;5.87;3.60;;;17.10;99.90;;;;;;5013885;28;20410;-73
2022/11/01 05:13:10;;;;;;;5.87;4.37;;;17.10;99.90;;;;;;5009053;28;20533;-73
2022/11/01 05:15:39;;;;;;;5.77;4.10;;;17.10;99.90;;;;;;4980296;28;20462;-72
2022/11/01 05:18:05;;;;;;;7.87;3.50;;;17.10;99.90;;;;;;5015450;28;20441;-73
2022/11/01 05:20:30;;;;;;;8.50;3.60;;;17.10;99.90;;;;;;4998261;28;20798;-73
2022/11/01 05:23:00;;;;;;;6.30;3.80;;;17.10;99.90;;;;;;5013608;28;20416;-73
2022/11/01 05:25:27;;;;;;;7.07;3.60;;;17.10;99.90;;;;;;5009859;28;20418;-73
2022/11/01 05:28:14;;;;;;;4.97;3.70;;;17.10;99.90;;;;;;4997564;28;20449;-73
2022/11/01 05:30:41;;;;;;;5.10;3.90;;;17.10;99.90;;;;;;5101183;22;21063;-73
2022/11/01 05:33:12;;;;;;;4.73;4.10;;;17.10;99.90;;;;;;5004435;28;20433;-73
2022/11/01 05:35:40;;;;;;;7.47;3.70;;;17.10;99.90;;;;;;5032277;28;20449;-74
2022/11/01 05:38:06;;;;;;;6.57;3.20;;;17.10;99.90;;;;;;5024319;28;20587;-73
2022/11/01 05:40:33;;;;;;;6.90;4.07;;;17.10;99.90;;;;;;5015739;28;20495;-73
2022/11/01 05:43:03;;;;;;;6.50;3.30;;;17.10;99.90;;;;;;5051969;28;20491;-73
2022/11/01 05:45:29;;;;;;;5.00;3.77;;;17.10;99.90;;;;;;5033069;28;20554;-73
2022/11/01 05:48:03;;;;;;;4.60;3.60;;;17.10;99.90;;;;;;5042807;28;20452;-73
2022/11/01 05:50:29;;;;;;;5.37;3.47;;;17.10;99.90;;;;;;5001670;28;20436;-73
2022/11/01 05:53:09;;;;;;;4.10;3.17;;;17.10;99.90;;;;;;5025345;28;20421;-73
2022/11/01 05:55:38;;;;;;;5.57;3.57;;;17.10;99.90;;;;;;5032061;28;20984;-73
2022/11/01 05:58:04;;;;;;;4.73;3.27;;;17.10;99.90;;;;;;5032247;28;20833;-73
2022/11/01 06:00:32;;;;;;;9.70;3.30;;;17.10;99.90;;;;;;5029962;28;20486;-73
2022/11/01 06:02:58;;;;;;;3.90;3.13;;;17.10;99.90;;;;;;5009422;28;20418;-73
2022/11/01 06:05:27;;;;;;;4.80;4.10;;;17.10;99.90;;;;;;5011970;28;20443;-73
2022/11/01 06:07:53;;;;;;;6.27;3.20;;;17.10;99.90;;;;;;5015026;28;20449;-73
2022/11/01 06:10:25;;;;;;;5.97;3.73;;;17.00;99.90;;;;;;4998332;28;20429;-73
2022/11/01 06:12:53;;;;;;;3.10;2.80;;;17.10;99.90;;;;;;5002384;28;20851;-73
2022/11/01 06:15:19;;;;;;;4.63;2.60;;;17.10;99.90;;;;;;4978324;28;20816;-73
2022/11/01 06:17:47;;;;;;;3.17;2.00;;;17.10;99.90;;;;;;5012954;28;20452;-73
2022/11/01 06:20:12;;;;;;;4.87;2.77;;;17.10;99.90;;;;;;5013860;28;20397;-73
2022/11/01 06:22:39;;;;;;;6.53;2.77;;;17.00;99.90;;;;;;5039139;28;20875;-73
2022/11/01 06:25:07;;;;;;;2.93;2.00;;;17.00;99.90;;;;;;5031878;28;20403;-73
2022/11/01 06:27:36;;;;;;;2.20;2.00;;;17.00;99.90;;;;;;4995474;28;20930;-73
2022/11/01 06:30:02;;;;;;;6.43;2.53;;;17.00;99.90;;;;;;4996368;28;20472;-73
2022/11/01 06:32:36;;;;;;;4.90;2.20;;;17.00;99.90;;;;;;5032848;28;20656;-73
2022/11/01 06:35:02;;;;;;;2.60;1.90;;;17.00;99.90;;;;;;5035691;28;20409;-73
2022/11/01 06:37:54;;;;;;;4.27;2.30;;;17.00;99.90;;;;;;5005331;28;20447;-73
2022/11/01 06:40:24;;;;;;;3.20;1.70;;;17.00;99.90;;;;;;5031030;28;20460;-73
2022/11/01 06:42:53;;;;;;;3.20;1.83;;;17.00;99.90;;;;;;5025892;28;20444;-73
2022/11/01 06:45:23;;;;;;;3.50;1.90;;;17.00;99.90;;;;;;5017898;28;20443;-73
2022/11/01 06:47:50;;;;;;;1.90;1.60;;;17.00;99.90;;;;;;5029411;28;20801;-73
2022/11/01 06:50:16;;;;;;;3.90;1.47;;;16.90;99.90;;;;;;5055498;28;20410;-73
2022/11/01 06:52:44;;;;;;;2.23;1.70;;;17.00;99.90;;;;;;5027359;28;20206;-73
2022/11/01 06:55:13;;;;;;;4.00;1.80;;;16.90;99.90;;;;;;5021311;28;20538;-73
2022/11/01 06:57:41;;;;;;;2.50;1.73;;;16.90;99.90;;;;;;5045086;28;20979;-73
2022/11/01 07:00:13;;;;;;;2.90;1.63;;;16.90;99.90;;;;;;4999714;28;20442;-73
2022/11/01 07:02:39;;;;;;;1.93;1.33;;;16.90;99.90;;;;;;5055691;28;20447;-73
2022/11/01 07:05:07;;;;;;;1.50;1.30;;;16.90;99.90;;;;;;5022481;28;20438;-73
2022/11/01 07:07:40;;;;;;;4.83;1.70;;;16.90;99.90;;;;;;5000786;28;20438;-73
2022/11/01 07:10:09;;;;;;;2.90;1.60;;;16.90;99.90;;;;;;5004467;28;20845;-73
2022/11/01 07:12:38;;;;;;;3.70;1.27;;;16.90;99.90;;;;;;5016379;28;20904;-73
2022/11/01 07:15:04;;;;;;;8.17;1.33;;;16.90;99.90;;;;;;5035614;28;20423;-73
2022/11/01 07:17:31;;;;;;;2.10;1.43;;;16.80;99.90;;;;;;5045016;28;20438;-73
2022/11/01 07:19:57;;;;;;;2.40;1.40;;;16.80;99.90;;;;;;5017192;28;20775;-73
2022/11/01 07:22:26;;;;;;;4.33;1.33;;;16.80;99.90;;;;;;5024640;28;20199;-73
2022/11/01 07:25:00;;;;;;;2.70;1.50;;;16.80;99.90;;;;;;5022345;28;20420;-73
2022/11/01 07:27:28;;;;;;;3.63;1.47;;;16.80;99.90;;;;;;5041293;28;20420;-73
2022/11/01 07:29:56;;;;;;;1.80;1.53;;;16.80;99.90;;;;;;5020404;28;20460;-73
2022/11/01 07:32:22;;;;;;;3.50;1.47;;;16.80;99.90;;;;;;5030099;28;20847;-73
2022/11/01 07:34:48;;;;;;;1.30;1.10;;;16.80;99.90;;;;;;5029139;28;20424;-73
2022/11/01 07:37:29;;;;;;;3.70;1.20;;;16.80;99.90;;;;;;5031665;28;20469;-73
2022/11/01 07:39:55;;;;;;;2.57;1.30;;;16.80;99.90;;;;;;5036291;28;21199;-73
2022/11/01 07:42:23;;;;;;;3.33;1.23;;;16.80;99.90;;;;;;5014230;28;20863;-73
2022/11/01 07:44:49;;;;;;;4.10;0.97;;;16.80;99.90;;;;;;5041665;28;20417;-73
2022/11/01 07:47:15;;;;;;;1.90;1.23;;;16.70;99.90;;;;;;5014202;28;20802;-73
2022/11/01 07:49:46;;;;;;;1.00;0.90;;;16.70;99.90;;;;;;5036711;28;20466;-73
2022/11/01 07:52:15;;;;;;;2.40;1.03;;;16.70;99.90;;;;;;5023342;28;20496;-73
2022/11/01 07:54:44;;;;;;;2.00;1.30;;;16.70;99.90;;;;;;5009354;28;20419;-73
2022/11/01 07:57:14;;;;;;;2.00;1.03;;;16.70;99.90;;;;;;4984217;28;21067;-73
2022/11/01 07:59:40;;;;;;;1.93;0.90;;;16.70;99.90;;;;;;5012375;28;20988;-73
2022/11/01 08:02:10;;;;;;;3.17;1.40;;;16.70;99.90;;;;;;4985465;28;20432;-73
2022/11/01 08:04:39;;;;;;;2.80;1.20;;;16.70;99.90;;;;;;5012886;28;20427;-73
2022/11/01 08:07:07;;;;;;;1.30;1.10;;;16.70;99.90;;;;;;5036490;28;20920;-73
2022/11/01 08:09:35;;;;;;;2.53;1.10;;;16.60;99.90;;;;;;5036147;28;20453;-73
2022/11/01 08:12:06;;;;;;;1.57;1.13;;;16.60;99.90;;;;;;5016962;28;20431;-73
2022/11/01 08:14:32;;;;;;;2.10;1.47;;;16.60;99.90;;;;;;4996779;28;20452;-73
2022/11/01 08:17:00;;;;;;;4.33;1.40;;;16.60;99.90;;;;;;4980078;28;20989;-73
2022/11/01 08:19:28;;;;;;;3.10;1.30;;;16.60;99.90;;;;;;5027719;28;20456;-73
2022/11/01 08:21:58;;;;;;;3.50;1.20;;;16.60;99.90;;;;;;5036023;28;20776;-73
2022/11/01 08:24:27;;;;;;;3.63;1.10;;;16.60;99.90;;;;;;5020383;28;20423;-73
2022/11/01 08:26:57;;;;;;;2.60;1.20;;;16.60;99.90;;;;;;5016051;28;20956;-73
2022/11/01 08:29:26;;;;;;;6.90;1.50;;;16.60;99.90;;;;;;5041761;28;20454;-73
2022/11/01 08:31:52;;;;;;;3.10;1.47;;;16.60;99.90;;;;;;5018091;28;20472;-73
2022/11/01 08:34:18;;;;;;;4.93;1.43;;;16.60;99.90;;;;;;5020558;28;20979;-73
2022/11/01 08:36:44;;;;;;;5.73;1.47;;;16.60;99.90;;;;;;4983438;28;20497;-73
2022/11/01 08:39:12;;;;;;;4.83;1.30;;;16.60;99.90;;;;;;5035288;28;20821;-73
2022/11/01 08:41:41;;;;;;;4.30;1.40;;;16.60;99.90;;;;;;5035054;28;20403;-73
2022/11/01 08:44:09;;;;;;;8.93;1.77;;;16.50;99.90;;;;;;5029525;28;20458;-73
2022/11/01 08:46:38;;;;;;;1.60;1.00;;;16.50;99.90;;;;;;5034725;28;20406;-73
2022/11/01 08:49:06;;;;;;;8.47;1.83;;;16.50;99.90;;;;;;5011037;28;20455;-73
2022/11/01 08:51:32;;;;;;;4.70;1.57;;;16.50;99.90;;;;;;5030546;28;20454;-73
2022/11/01 08:54:00;;;;;;;6.43;1.70;;;16.50;99.90;;;;;;4997326;28;20847;-73
2022/11/01 08:56:26;;;;;;;5.60;1.50;;;16.50;99.90;;;;;;5027724;28;20888;-73
2022/11/01 08:58:59;;;;;;;4.37;1.20;;;16.50;99.90;;;;;;5046870;28;20447;-73
2022/11/01 09:01:25;;;;;;;4.63;1.80;;;16.50;99.80;;;;;;4999531;28;20484;-73
2022/11/01 09:03:57;;;;;;;7.10;1.60;;;16.50;99.70;;;;;;5026868;28;20484;-72
2022/11/01 09:06:24;;;;;;;7.60;1.60;;;16.50;99.60;;;;;;5024865;28;20444;-73
2022/11/01 09:08:52;;;;;;;5.77;1.27;;;16.50;99.40;;;;;;5053048;28;20779;-73
2022/11/01 09:11:20;;;;;;;5.33;1.70;;;16.50;99.40;;;;;;5032065;28;20417;-73
2022/11/01 09:13:52;;;;;;;6.37;1.80;;;16.50;99.40;;;;;;5000696;28;20818;-73
2022/11/01 09:16:20;;;;;;;5.13;1.87;;;16.50;99.40;;;;;;5023650;28;20522;-72
2022/11/01 09:18:46;;;;;;;5.83;1.87;;;16.50;99.30;;;;;;5015106;28;20482;-74
2022/11/01 09:21:14;;;;;;;5.30;1.43;;;16.50;99.30;;;;;;5033464;28;20500;-74
2022/11/01 09:23:42;;;;;;;2.97;1.60;;;16.50;99.30;;;;;;5018027;28;20491;-74
2022/11/01 09:26:09;;;;;;;8.07;1.87;;;16.50;99.30;;;;;;5007387;28;20431;-73
2022/11/01 09:28:40;;;;;;;4.57;1.60;;;16.50;99.40;;;;;;5046396;28;20446;-73
2022/11/01 09:31:09;;;;;;;10.10;2.03;;;16.50;99.30;;;;;;4993808;28;20538;-73
2022/11/01 09:33:40;;;;;;;4.97;1.80;;;16.50;99.40;;;;;;5027661;28;20453;-73
2022/11/01 09:36:09;;;;;;;3.77;1.67;;;16.50;99.40;;;;;;5018119;28;20517;-73
2022/11/01 09:38:37;;;;;;;10.47;2.40;;;16.50;99.40;;;;;;5008489;28;20474;-73
2022/11/01 09:41:18;;;;;;;3.80;1.13;;;16.50;99.30;;;;;;5034068;28;20419;-73
2022/11/01 09:43:49;;;;;;;5.00;1.57;;;16.50;99.30;;;;;;5032659;28;20414;-73
2022/11/01 09:46:19;;;;;;;6.23;1.70;;;16.50;99.20;;;;;;5035869;28;20424;-74
2022/11/01 09:48:48;;;;;;;6.20;2.00;;;16.50;99.10;;;;;;5052546;28;20493;-74
2022/11/01 09:51:23;;;;;;;8.20;1.90;;;16.50;99.00;;;;;;5030320;28;20958;-73
2022/11/01 09:53:57;;;;;;;4.87;1.57;;;16.50;99.00;;;;;;5032700;28;20403;-74
2022/11/01 09:56:32;;;;;;;7.03;1.43;;;16.50;98.80;;;;;;5033097;28;20829;-73
2022/11/01 09:59:15;;;;;;;5.10;1.50;;;16.50;98.70;;;;;;5015771;28;20438;-73
2022/11/01 10:02:05;;;;;;;5.33;1.43;;;16.50;98.60;;;;;;4999796;28;20551;-73
2022/11/01 10:04:59;;;;;;;4.63;1.60;;;16.50;98.40;;;;;;5035632;28;20502;-73
2022/11/01 10:07:37;;;;;;;5.20;1.33;;;16.50;98.40;;;;;;5051900;28;20414;-73
2022/11/01 10:10:34;;;;;;;9.50;1.80;;;16.50;98.40;;;;;;5033036;28;20484;-73
2022/11/01 10:13:31;;;;;;;6.33;2.10;;;16.50;98.30;;;;;;4994914;28;20491;-73
2022/11/01 10:16:07;;;;;;;5.10;1.47;;;16.50;98.30;;;;;;5014600;28;20455;-73
2022/11/01 10:18:54;;;;;;;4.77;1.80;;;16.50;98.10;;;;;;5017753;28;20465;-74
2022/11/01 10:21:24;;;;;;;6.43;1.47;;;16.50;98.10;;;;;;5011442;28;20774;-74
2022/11/01 10:23:52;;;;;;;6.10;1.73;;;16.60;98.30;;;;;;5028721;28;20434;-73
2022/11/01 10:26:25;;;;;;;5.27;1.60;;;16.50;98.10;;;;;;5031842;28;20416;-74
2022/11/01 10:29:05;;;;;;;7.87;1.70;;;16.60;98.00;;;;;;5019457;28;20968;-74
2022/11/01 10:31:44;;;;;;;8.87;1.80;;;16.60;98.40;;;;;;5004377;28;20463;-74
2022/11/01 10:34:22;;;;;;;7.57;1.80;;;16.60;98.00;;;;;;4998278;28;20490;-74
2022/11/01 10:36:55;;;;;;;5.83;1.33;;;16.60;98.10;;;;;;5031783;28;20494;-73
2022/11/01 10:39:41;;;;;;;5.90;1.23;;;16.60;98.10;;;;;;5014809;28;20439;-74
2022/11/01 10:42:11;;;;;;;6.43;1.83;;;16.60;98.10;;;;;;5037179;28;21048;-74
2022/11/01 10:44:45;;;;;;;7.23;2.00;;;16.60;97.90;;;;;;5012581;28;20504;-73
2022/11/01 10:47:18;;;;;;;7.77;2.50;;;16.60;97.90;;;;;;5022923;28;20523;-74
2022/11/01 10:50:09;;;;;;;8.97;2.40;;;16.60;98.00;;;;;;5043593;28;20451;-73
2022/11/01 10:52:57;;;;;;;7.27;2.07;;;16.60;97.90;;;;;;5011882;28;20524;-73
2022/11/01 10:55:43;;;;;;;8.13;1.90;;;16.70;97.80;;;;;;5041589;22;22457;-74
2022/11/01 10:58:28;;;;;;;7.73;1.80;;;16.60;97.50;;;;;;5003424;28;20449;-74
2022/11/01 11:00:54;;;;;;;8.77;1.40;;;16.70;97.20;;;;;;4992367;28;20524;-74
2022/11/01 11:03:27;;;;;;;6.30;1.53;;;16.60;97.10;;;;;;5011654;28;20441;-74
2022/11/01 11:05:55;;;;;;;6.60;1.50;;;16.70;97.20;;;;;;4976019;28;20520;-74
2022/11/01 11:08:23;;;;;;;6.67;1.60;;;16.70;97.30;;;;;;4970655;28;20492;-74
2022/11/01 11:10:53;;;;;;;5.10;1.90;;;16.70;97.30;;;;;;4965862;28;20501;-74
2022/11/01 11:13:22;;;;;;;3.43;1.50;;;16.70;97.10;;;;;;4958712;28;20401;-74
2022/11/01 11:15:55;;;;;;;9.80;1.70;;;16.70;96.90;;;;;;4986417;28;20550;-74
2022/11/01 11:18:50;;;;;;;10.80;2.00;;;16.70;96.70;;;;;;5012505;28;20451;-74
2022/11/01 11:21:19;;;;;;;6.20;1.50;;;16.70;96.60;;;;;;4966398;28;20489;-74
2022/11/01 11:23:50;;;;;;;5.13;1.93;;;16.70;96.60;;;;;;4997799;28;20406;-74
2022/11/01 11:26:19;;;;;;;22.43;3.57;;;16.70;96.50;;;;;;4973939;28;20422;-74
2022/11/01 11:28:50;;;;;;;6.10;1.90;;;16.80;96.50;;;;;;5002588;28;20452;-74
2022/11/01 11:31:27;;;;;;;8.53;1.93;;;16.70;96.30;;;;;;4981637;28;20467;-74
2022/11/01 11:34:27;;;;;;;10.30;1.93;;;16.80;96.20;;;;;;4984066;28;20453;-74
2022/11/01 11:36:53;;;;;;;4.23;1.60;;;16.80;96.10;;;;;;4988964;28;20533;-74
2022/11/01 11:39:30;;;;;;;6.17;1.80;;;16.80;96.20;;;;;;4994998;28;20466;-75
2022/11/01 11:42:11;;;;;;;7.27;1.90;;;16.80;96.30;;;;;;5008142;28;20437;-74
2022/11/01 11:44:41;;;;;;;5.10;1.80;;;16.80;96.00;;;;;;4997330;28;20532;-74
2022/11/01 11:47:18;;;;;;;5.27;1.83;;;16.80;95.80;;;;;;4997778;28;20559;-74
2022/11/01 11:49:49;;;;;;;7.83;2.13;;;16.80;95.70;;;;;;4961809;28;20454;-74
2022/11/01 11:52:18;;;;;;;3.63;1.50;;;16.80;95.70;;;;;;4990688;28;20957;-74
2022/11/01 11:54:45;;;;;;;7.63;1.70;;;16.80;95.90;;;;;;4999364;28;20517;-74
2022/11/01 11:57:19;;;;;;;8.87;2.30;;;16.80;95.90;;;;;;5014508;28;20637;-74
2022/11/01 12:00:00;;;;;;;8.60;2.30;;;16.80;96.10;;;;;;5011005;28;20452;-74
2022/11/01 12:02:38;;;;;;;4.00;1.57;;;16.80;96.10;;;;;;4995691;28;20450;-74
2022/11/01 12:05:14;;;;;;;10.13;2.50;;;16.80;96.30;;;;;;4996686;28;20429;-74
2022/11/01 12:07:52;;;;;;;6.67;2.00;;;16.80;96.60;;;;;;4979847;28;20464;-74
2022/11/01 12:10:32;;;;;;;7.37;1.63;;;16.80;96.80;;;;;;4996381;28;20402;-74
2022/11/01 12:13:20;;;;;;;5.17;1.37;;;16.80;96.90;;;;;;4996667;28;20547;-74
2022/11/01 12:15:46;;;;;;;5.83;1.50;;;16.80;96.50;;;;;;4954436;28;20832;-75
2022/11/01 12:18:19;;;;;;;5.50;1.40;;;16.80;96.20;;;;;;4980360;28;20600;-74
2022/11/01 12:20:51;;;;;;;7.30;1.63;;;16.90;96.10;;;;;;4983357;28;20453;-74
2022/11/01 12:23:28;;;;;;;4.80;1.90;;;16.80;96.00;;;;;;4987862;28;20506;-74
2022/11/01 12:26:03;;;;;;;4.47;1.30;;;16.90;96.10;;;;;;4969293;28;20440;-74
2022/11/01 12:28:39;;;;;;;6.30;2.00;;;16.90;96.10;;;;;;4977644;28;20457;-74
2022/11/01 12:31:20;;;;;;;9.47;1.97;;;16.80;96.10;;;;;;4976868;28;20456;-73
2022/11/01 12:34:04;;;;;;;6.97;1.70;;;16.90;96.20;;;;;;5005569;28;20513;-74
2022/11/01 12:36:42;;;;;;;6.73;2.03;;;16.90;96.10;;;;;;5007543;28;20824;-74
2022/11/01 12:39:56;;;;;;;7.30;2.30;;;16.90;96.20;;;;;;4971990;28;20545;-74
2022/11/01 12:42:46;;;;;;;7.37;2.03;;;16.90;96.20;;;;;;4899027;29;21103;-74
2022/11/01 12:45:27;;;;;;;7.00;1.90;;;16.90;96.20;;;;;;4898007;29;20526;-74
2022/11/01 12:48:06;;;;;;;10.67;2.50;;;16.90;96.20;;;;;;4895697;29;20454;-74
2022/11/01 12:50:57;;;;;;;8.93;2.17;;;16.90;96.30;;;;;;4882697;29;20435;-74
2022/11/01 12:53:39;;;;;;;5.23;1.67;;;16.90;96.20;;;;;;4904966;29;20476;-74
2022/11/01 12:56:09;;;;;;;5.80;1.67;;;16.90;96.20;;;;;;4887077;29;20978;-73
2022/11/01 12:58:35;;;;;;;6.83;1.30;;;16.90;96.40;;;;;;4898862;29;20528;-74
2022/11/01 13:01:22;;;;;;;9.40;2.20;;;16.90;96.60;;;;;;4897696;29;20474;-74
2022/11/01 13:04:14;;;;;;;8.83;1.97;;;16.90;96.50;;;;;;4902478;29;20447;-74
2022/11/01 13:07:20;;;;;;;11.07;1.77;;;16.90;96.90;;;;;;4892101;29;20476;-74
2022/11/01 13:09:51;;;;;;;8.20;1.60;;;16.90;96.60;;;;;;4898886;29;20462;-74
2022/11/01 13:12:45;;;;;;;3.53;1.43;;;16.90;96.60;;;;;;4909808;28;20492;-74
2022/11/01 13:15:23;;;;;;;3.70;1.50;;;16.90;96.60;;;;;;4949313;28;20926;-74
2022/11/01 13:17:58;;;;;;;6.50;1.83;;;16.90;96.60;;;;;;4992351;28;20787;-74
2022/11/01 13:21:08;;;;;;;6.30;1.90;;;16.90;96.50;;;;;;4978008;28;20516;-74